Time;durP1;ratioP1;P1;durP2;ratioP2;P2;SDS_P1;SDS_P2;PMS_P1;PMS_P2;Temp;Humidity;BMP_temperature;BMP_pressure;BME280_temperature;BME280_humidity;BME280_pressure;Samples;Min_cycle;Max_cycle;Signal;HPM_P1;HPM_P2
2023/03/22 00:00:48;;;;;;;18.15;13.00;;;10.00;99.90;;;;;;5062860;28;20044;-81
2023/03/22 00:03:15;;;;;;;18.42;12.90;;;10.00;99.90;;;;;;5066707;28;20036;-82
2023/03/22 00:05:41;;;;;;;19.60;13.20;;;10.10;99.90;;;;;;5055774;28;20051;-80
2023/03/22 00:08:07;;;;;;;19.08;12.88;;;10.10;99.90;;;;;;5056401;28;20044;-80
2023/03/22 00:10:36;;;;;;;19.52;13.02;;;10.10;99.90;;;;;;5056309;28;20056;-77
2023/03/22 00:13:02;;;;;;;19.58;13.95;;;10.10;99.90;;;;;;5056410;28;20060;-78
2023/03/22 00:15:30;;;;;;;20.92;13.65;;;10.10;99.90;;;;;;5056382;28;20040;-79
2023/03/22 00:17:57;;;;;;;18.45;12.82;;;10.00;99.90;;;;;;5055341;28;20040;-80
2023/03/22 00:20:25;;;;;;;19.30;13.55;;;10.00;99.90;;;;;;5036087;28;20075;-80
2023/03/22 00:22:50;;;;;;;19.80;12.85;;;10.10;99.90;;;;;;5053377;28;20475;-82
2023/03/22 00:25:17;;;;;;;17.63;12.50;;;10.10;99.90;;;;;;5039612;28;20063;-79
2023/03/22 00:27:42;;;;;;;16.10;11.88;;;10.10;99.90;;;;;;5071203;28;20098;-80
2023/03/22 00:30:10;;;;;;;17.13;11.55;;;10.00;99.90;;;;;;5043593;28;20088;-81
2023/03/22 00:32:41;;;;;;;18.40;11.18;;;10.00;99.90;;;;;;5055102;28;20048;-79
2023/03/22 00:35:08;;;;;;;15.80;9.40;;;10.10;99.90;;;;;;5055398;28;20051;-82
2023/03/22 00:37:37;;;;;;;13.73;10.15;;;10.10;99.90;;;;;;5052374;28;20048;-81
2023/03/22 00:40:09;;;;;;;20.27;10.30;;;10.10;99.90;;;;;;5052227;28;20079;-80
2023/03/22 00:42:36;;;;;;;15.02;9.77;;;10.10;99.90;;;;;;5043115;28;20075;-80
2023/03/22 00:45:04;;;;;;;16.58;9.50;;;10.10;99.90;;;;;;5038730;28;20101;-80
2023/03/22 00:47:30;;;;;;;16.25;10.45;;;10.10;99.90;;;;;;5055028;28;20052;-80
2023/03/22 00:49:56;;;;;;;15.93;11.07;;;10.00;99.90;;;;;;5054851;28;20474;-82
2023/03/22 00:52:21;;;;;;;14.65;10.20;;;9.90;99.90;;;;;;5008543;28;20368;-81
2023/03/22 00:54:47;;;;;;;16.50;11.63;;;9.90;99.90;;;;;;5055639;28;20049;-80
2023/03/22 00:57:13;;;;;;;16.65;11.30;;;9.80;99.90;;;;;;5070467;28;20040;-81
2023/03/22 00:59:41;;;;;;;20.00;12.20;;;9.80;99.90;;;;;;5052026;28;20429;-80
2023/03/22 01:02:08;;;;;;;18.80;12.40;;;9.80;99.90;;;;;;5060479;28;20052;-81
2023/03/22 01:04:35;;;;;;;19.02;12.20;;;9.80;99.90;;;;;;5056707;28;20505;-82
2023/03/22 01:07:04;;;;;;;20.40;12.02;;;9.80;99.90;;;;;;5058572;28;20127;-79
2023/03/22 01:09:32;;;;;;;19.63;11.90;;;9.80;99.90;;;;;;5075119;28;20047;-79
2023/03/22 01:12:00;;;;;;;20.90;11.90;;;9.80;99.90;;;;;;5064709;28;20048;-80
2023/03/22 01:14:27;;;;;;;18.45;11.20;;;9.80;99.90;;;;;;5054859;28;20059;-80
2023/03/22 01:16:56;;;;;;;17.05;10.40;;;9.80;99.90;;;;;;5063726;28;20043;-78
2023/03/22 01:19:26;;;;;;;15.27;9.60;;;9.80;99.90;;;;;;5068088;28;20051;-79
2023/03/22 01:21:53;;;;;;;15.50;9.43;;;9.80;99.90;;;;;;5080478;28;20119;-79
2023/03/22 01:24:19;;;;;;;16.52;9.77;;;9.80;99.90;;;;;;5070501;28;20429;-78
2023/03/22 01:26:45;;;;;;;16.52;9.60;;;9.80;99.90;;;;;;5054697;28;20039;-79
2023/03/22 01:29:11;;;;;;;17.17;9.85;;;9.70;99.90;;;;;;5026617;28;20480;-80
2023/03/22 01:31:37;;;;;;;17.15;9.77;;;9.70;99.90;;;;;;5055821;28;20051;-80
2023/03/22 01:34:03;;;;;;;17.08;9.82;;;9.70;99.90;;;;;;5082756;28;20143;-79
2023/03/22 01:36:29;;;;;;;16.13;9.15;;;9.70;99.90;;;;;;5054519;28;20056;-79
2023/03/22 01:38:55;;;;;;;15.23;8.60;;;9.70;99.90;;;;;;5080547;28;20044;-79
2023/03/22 01:41:21;;;;;;;16.00;8.85;;;9.70;99.90;;;;;;5062927;28;20052;-80
2023/03/22 01:44:13;;;;;;;15.15;8.65;;;9.70;99.90;;;;;;5072271;28;20128;-81
2023/03/22 01:46:40;;;;;;;11.82;5.90;;;9.60;99.90;;;;;;5072481;28;20483;-81
2023/03/22 01:49:13;;;;;;;16.13;7.72;;;9.60;99.90;;;;;;5059492;28;20040;-80
2023/03/22 01:51:40;;;;;;;14.73;7.03;;;9.60;99.90;;;;;;5092569;28;20036;-81
2023/03/22 01:54:13;;;;;;;13.82;6.80;;;9.60;99.90;;;;;;5050674;28;20464;-82
2023/03/22 01:56:40;;;;;;;14.80;6.53;;;9.60;99.90;;;;;;5058391;28;20079;-79
2023/03/22 01:59:09;;;;;;;13.93;6.60;;;9.60;99.90;;;;;;5056807;28;20045;-80
2023/03/22 02:01:36;;;;;;;13.93;6.63;;;9.60;99.90;;;;;;5050435;28;20062;-80
2023/03/22 02:04:09;;;;;;;14.30;6.38;;;9.60;99.90;;;;;;5057880;28;20353;-80
2023/03/22 02:06:37;;;;;;;13.25;6.15;;;9.60;99.90;;;;;;5057160;28;20072;-80
2023/03/22 02:09:09;;;;;;;13.20;6.10;;;9.60;99.90;;;;;;5058111;28;20060;-79
2023/03/22 02:11:47;;;;;;;15.57;6.53;;;9.60;99.90;;;;;;5058441;28;20040;-79
2023/03/22 02:14:19;;;;;;;11.93;5.70;;;9.60;99.90;;;;;;5057904;28;20048;-80
2023/03/22 02:17:36;;;;;;;11.18;5.32;;;9.60;99.90;;;;;;5075216;28;20101;-81
2023/03/22 02:20:09;;;;;;;14.48;5.72;;;9.60;99.90;;;;;;5041621;28;20127;-80
2023/03/22 02:22:56;;;;;;;14.95;5.38;;;9.60;99.90;;;;;;5088502;28;20040;-81
2023/03/22 02:25:49;;;;;;;12.57;5.55;;;9.60;99.90;;;;;;5061657;28;20052;-80
2023/03/22 02:28:30;;;;;;;12.40;5.30;;;9.60;99.90;;;;;;5058086;28;20091;-79
2023/03/22 02:31:02;;;;;;;11.98;5.20;;;9.60;99.90;;;;;;5053887;28;20044;-80
2023/03/22 02:33:45;;;;;;;15.10;5.38;;;9.60;99.90;;;;;;5062242;28;20045;-78
2023/03/22 02:36:29;;;;;;;14.25;6.13;;;9.50;99.90;;;;;;5071430;28;20082;-81
2023/03/22 02:39:20;;;;;;;16.77;6.38;;;9.50;99.90;;;;;;5057864;28;20127;-80
2023/03/22 02:42:10;;;;;;;12.98;6.30;;;9.60;99.90;;;;;;5040805;28;20036;-81
2023/03/22 02:45:10;;;;;;;12.75;6.00;;;9.50;99.90;;;;;;5057844;28;20101;-80
2023/03/22 02:47:53;;;;;;;15.93;6.32;;;9.60;99.90;;;;;;5026910;28;20044;-80
2023/03/22 02:50:31;;;;;;;;;;;9.50;99.90;;;;;;5057656;28;20041;-81
2023/03/22 02:53:04;;;;;;;15.13;5.68;;;9.50;99.90;;;;;;5061697;28;19923;-80
2023/03/22 02:55:47;;;;;;;12.63;5.85;;;9.50;99.90;;;;;;5044454;28;20051;-82
2023/03/22 02:58:25;;;;;;;12.93;5.72;;;9.50;99.90;;;;;;5054429;28;20048;-81
2023/03/22 03:00:58;;;;;;;13.68;5.90;;;9.50;99.90;;;;;;5056345;28;20174;-81
2023/03/22 03:03:28;;;;;;;15.10;5.78;;;9.40;99.90;;;;;;5028651;28;20044;-83
2023/03/22 03:06:07;;;;;;;14.68;5.75;;;9.50;99.90;;;;;;5055851;28;20045;-80
2023/03/22 03:08:35;;;;;;;13.10;5.63;;;9.50;99.90;;;;;;5049072;28;20051;-81
2023/03/22 03:11:01;;;;;;;12.73;5.90;;;9.50;99.90;;;;;;5062354;28;20058;-80
2023/03/22 03:13:27;;;;;;;14.75;5.93;;;9.50;99.90;;;;;;5075229;28;20403;-80
2023/03/22 03:15:57;;;;;;;14.85;6.18;;;9.50;99.90;;;;;;5053756;28;20041;-81
2023/03/22 03:18:31;;;;;;;11.35;5.47;;;9.40;99.90;;;;;;5055905;28;20055;-80
2023/03/22 03:21:17;;;;;;;15.30;5.95;;;9.40;99.90;;;;;;5074327;28;20071;-80
2023/03/22 03:24:07;;;;;;;12.60;5.55;;;9.40;99.90;;;;;;5040731;28;20125;-82
2023/03/22 03:26:36;;;;;;;14.48;5.70;;;9.40;99.90;;;;;;5068561;28;20647;-80
2023/03/22 03:29:13;;;;;;;13.52;5.75;;;9.40;99.90;;;;;;5080274;28;20044;-81
2023/03/22 03:31:46;;;;;;;12.52;5.45;;;9.40;99.90;;;;;;5068623;28;20047;-80
2023/03/22 03:34:22;;;;;;;16.20;5.90;;;9.40;99.90;;;;;;5056456;28;20070;-79
2023/03/22 03:36:59;;;;;;;11.45;5.53;;;9.40;99.90;;;;;;5056741;28;20036;-80
2023/03/22 03:39:29;;;;;;;15.18;5.53;;;9.40;99.90;;;;;;5053603;28;20044;-80
2023/03/22 03:41:56;;;;;;;13.85;5.30;;;9.40;99.90;;;;;;5056805;28;20052;-80
2023/03/22 03:44:22;;;;;;;13.82;4.85;;;9.30;99.90;;;;;;5037566;28;20053;-81
2023/03/22 03:46:51;;;;;;;11.05;4.50;;;9.40;99.90;;;;;;5056191;28;20032;-81
2023/03/22 03:49:17;;;;;;;13.63;4.88;;;9.50;99.90;;;;;;5056232;28;20048;-80
2023/03/22 03:51:49;;;;;;;11.25;4.35;;;9.50;99.90;;;;;;5055761;28;20476;-77
2023/03/22 03:54:15;;;;;;;9.52;4.47;;;9.50;99.90;;;;;;5058307;28;20056;-81
2023/03/22 03:56:40;;;;;;;11.48;3.92;;;9.50;99.90;;;;;;5057640;28;20043;-80
2023/03/22 03:59:08;;;;;;;9.82;4.20;;;9.50;99.90;;;;;;5056504;28;20464;-80
2023/03/22 04:01:34;;;;;;;11.65;4.10;;;9.50;99.90;;;;;;5065980;28;20473;-81
2023/03/22 04:04:00;;;;;;;11.32;4.32;;;9.60;99.90;;;;;;5048768;28;20044;-80
2023/03/22 04:06:26;;;;;;;10.73;4.55;;;9.60;99.90;;;;;;5038354;28;20044;-79
2023/03/22 04:08:52;;;;;;;9.85;4.38;;;9.60;99.90;;;;;;5056285;28;20057;-80
2023/03/22 04:11:21;;;;;;;13.02;4.70;;;9.60;99.90;;;;;;5039458;28;20102;-80
2023/03/22 04:13:47;;;;;;;11.52;4.90;;;9.60;99.90;;;;;;5056615;28;20037;-80
2023/03/22 04:16:12;;;;;;;12.70;5.28;;;9.70;99.90;;;;;;5055965;28;20047;-81
2023/03/22 04:18:38;;;;;;;13.95;5.35;;;9.70;99.90;;;;;;5072804;28;20049;-80
2023/03/22 04:21:04;;;;;;;13.18;6.10;;;9.70;99.90;;;;;;5073471;28;20427;-80
2023/03/22 04:23:31;;;;;;;13.40;6.20;;;9.70;99.90;;;;;;5055469;28;20460;-81
2023/03/22 04:25:58;;;;;;;13.48;6.88;;;9.70;99.90;;;;;;5071219;28;20043;-81
2023/03/22 04:28:25;;;;;;;14.27;7.43;;;9.80;99.90;;;;;;5066125;28;20476;-81
2023/03/22 04:30:51;;;;;;;14.18;8.05;;;9.80;99.90;;;;;;5039483;28;20045;-81
2023/03/22 04:33:18;;;;;;;16.42;8.95;;;9.80;99.90;;;;;;5035274;28;20077;-81
2023/03/22 04:35:47;;;;;;;15.88;9.95;;;9.80;99.90;;;;;;5035509;28;20128;-81
2023/03/22 04:38:13;;;;;;;17.25;10.30;;;9.80;99.90;;;;;;5055242;28;20097;-79
2023/03/22 04:40:45;;;;;;;15.70;11.20;;;9.80;99.90;;;;;;5056059;28;20481;-81
2023/03/22 04:43:11;;;;;;;19.02;11.75;;;9.90;99.90;;;;;;5034421;28;20048;-81
2023/03/22 04:45:37;;;;;;;17.30;11.75;;;9.90;99.90;;;;;;5053527;28;20557;-81
2023/03/22 04:48:06;;;;;;;19.05;12.25;;;9.90;99.90;;;;;;5048978;28;20052;-82
2023/03/22 04:50:32;;;;;;;21.02;14.00;;;9.90;99.90;;;;;;5052297;28;20393;-82
2023/03/22 04:52:58;;;;;;;23.13;14.02;;;9.80;99.90;;;;;;5069174;28;20045;-79
2023/03/22 04:55:23;;;;;;;21.10;14.40;;;9.90;99.90;;;;;;5073479;28;20055;-81
2023/03/22 04:57:50;;;;;;;20.38;14.73;;;9.90;99.90;;;;;;5022504;28;20044;-81
2023/03/22 05:00:17;;;;;;;22.30;15.18;;;9.40;99.90;;;;;;5059683;28;20040;-82
2023/03/22 05:02:43;;;;;;;21.13;14.95;;;10.00;99.90;;;;;;5055429;28;20055;-80
2023/03/22 05:05:09;;;;;;;21.52;15.02;;;10.00;99.90;;;;;;5055232;28;20403;-83
2023/03/22 05:07:35;;;;;;;19.92;14.73;;;10.00;99.90;;;;;;5055432;28;20464;-79
2023/03/22 05:10:01;;;;;;;20.45;15.27;;;10.10;99.90;;;;;;5055702;28;20052;-81
2023/03/22 05:12:27;;;;;;;19.90;14.75;;;10.10;99.90;;;;;;5055889;28;20063;-81
2023/03/22 05:14:53;;;;;;;22.95;16.20;;;10.10;99.90;;;;;;5074395;28;20045;-81
2023/03/22 05:17:18;;;;;;;23.05;15.43;;;10.10;99.90;;;;;;5037110;28;20045;-82
2023/03/22 05:19:44;;;;;;;22.58;15.43;;;10.10;99.90;;;;;;5051954;28;20040;-81
2023/03/22 05:22:10;;;;;;;21.20;14.65;;;10.10;99.90;;;;;;5057066;28;20044;-82
2023/03/22 05:24:36;;;;;;;21.67;15.35;;;10.00;99.90;;;;;;5056386;28;20454;-81
2023/03/22 05:27:02;;;;;;;21.55;14.95;;;10.00;99.90;;;;;;5052505;28;20044;-81
2023/03/22 05:29:28;;;;;;;23.88;15.15;;;10.00;99.90;;;;;;5040265;28;20044;-83
2023/03/22 05:31:54;;;;;;;20.05;15.00;;;10.00;99.90;;;;;;5052142;28;20045;-80
2023/03/22 05:34:20;;;;;;;20.13;14.38;;;10.00;99.90;;;;;;5067378;28;20044;-79
2023/03/22 05:36:46;;;;;;;22.08;15.70;;;10.10;99.90;;;;;;5072721;28;20055;-82
2023/03/22 05:39:14;;;;;;;20.00;13.55;;;10.10;99.90;;;;;;5073108;28;20048;-81
2023/03/22 05:41:40;;;;;;;22.75;14.43;;;10.00;99.90;;;;;;5073485;28;20101;-81
2023/03/22 05:44:06;;;;;;;21.13;14.55;;;10.10;99.90;;;;;;5061805;28;20045;-82
2023/03/22 05:46:32;;;;;;;20.05;14.20;;;10.10;99.90;;;;;;5054325;28;20028;-79
2023/03/22 05:48:57;;;;;;;21.00;14.38;;;10.10;99.90;;;;;;5037804;28;20045;-82
2023/03/22 05:51:24;;;;;;;19.95;14.63;;;10.10;99.90;;;;;;5051333;28;20186;-80
2023/03/22 05:53:52;;;;;;;21.38;14.30;;;10.10;99.90;;;;;;5052042;28;20229;-81
2023/03/22 05:56:22;;;;;;;22.23;14.23;;;10.10;99.90;;;;;;5051144;28;20430;-81
2023/03/22 05:58:49;;;;;;;20.08;14.00;;;10.10;99.90;;;;;;5034154;28;20037;-80
2023/03/22 06:01:15;;;;;;;20.45;14.27;;;10.10;99.90;;;;;;5050946;28;20067;-82
2023/03/22 06:03:41;;;;;;;18.42;13.27;;;10.10;99.90;;;;;;5054313;28;20468;-81
2023/03/22 06:06:09;;;;;;;19.75;14.18;;;10.10;99.90;;;;;;5077387;28;20423;-82
2023/03/22 06:08:36;;;;;;;19.38;13.70;;;10.10;99.90;;;;;;5032203;28;20056;-82
2023/03/22 06:11:02;;;;;;;18.92;13.02;;;10.10;99.90;;;;;;5050238;28;20044;-81
2023/03/22 06:13:28;;;;;;;17.42;12.65;;;10.10;99.90;;;;;;5042409;28;20051;-79
2023/03/22 06:15:53;;;;;;;20.73;13.90;;;10.10;99.90;;;;;;5063987;28;20049;-82
2023/03/22 06:18:19;;;;;;;17.83;12.93;;;10.20;99.90;;;;;;5050641;28;20041;-81
2023/03/22 06:20:45;;;;;;;19.50;12.90;;;10.10;99.90;;;;;;5054478;28;20041;-82
2023/03/22 06:23:10;;;;;;;18.50;12.35;;;10.20;99.90;;;;;;5058504;28;20045;-81
2023/03/22 06:25:36;;;;;;;21.05;12.50;;;10.10;99.90;;;;;;5028595;28;20044;-82
2023/03/22 06:28:02;;;;;;;20.52;12.32;;;10.20;99.90;;;;;;5067427;28;20036;-82
2023/03/22 06:30:28;;;;;;;18.48;12.63;;;10.10;99.90;;;;;;5037933;28;20859;-82
2023/03/22 06:32:54;;;;;;;19.83;12.65;;;10.20;99.90;;;;;;5032356;28;20041;-81
2023/03/22 06:35:20;;;;;;;16.88;12.05;;;10.10;99.90;;;;;;5047536;28;20068;-81
2023/03/22 06:37:45;;;;;;;18.80;11.43;;;10.10;99.90;;;;;;5050861;28;20477;-82
2023/03/22 06:40:11;;;;;;;18.55;11.60;;;10.20;99.90;;;;;;5037444;28;20036;-81
2023/03/22 06:42:37;;;;;;;16.48;11.57;;;10.20;99.90;;;;;;5056556;28;20064;-82
2023/03/22 06:45:03;;;;;;;17.83;11.45;;;10.20;99.90;;;;;;5058212;28;20040;-81
2023/03/22 06:47:29;;;;;;;17.40;10.77;;;10.20;99.90;;;;;;5057564;28;20048;-81
2023/03/22 06:49:55;;;;;;;16.80;10.43;;;10.20;99.90;;;;;;5060131;28;20183;-80
2023/03/22 06:52:20;;;;;;;18.15;9.85;;;10.30;99.90;;;;;;5058232;28;20040;-79
2023/03/22 06:54:46;;;;;;;17.38;9.63;;;10.30;99.90;;;;;;5075507;28;20464;-80
2023/03/22 06:57:12;;;;;;;16.25;10.00;;;10.40;99.90;;;;;;5057903;28;20045;-80
2023/03/22 06:59:38;;;;;;;14.68;9.60;;;10.40;99.90;;;;;;5070817;28;20487;-81
2023/03/22 07:02:04;;;;;;;16.60;9.93;;;10.50;99.90;;;;;;5047029;28;20067;-78
2023/03/22 07:04:31;;;;;;;16.42;9.68;;;10.50;99.90;;;;;;5071792;28;20032;-81
2023/03/22 07:06:57;;;;;;;13.23;8.65;;;10.50;99.90;;;;;;5041450;28;20480;-80
2023/03/22 07:09:25;;;;;;;14.20;8.52;;;10.60;99.90;;;;;;5058043;28;20056;-80
2023/03/22 07:11:51;;;;;;;15.45;9.15;;;10.60;99.90;;;;;;5050824;28;20049;-81
2023/03/22 07:14:17;;;;;;;14.13;8.95;;;10.70;99.90;;;;;;5012899;28;20048;-82
2023/03/22 07:16:43;;;;;;;15.43;8.60;;;10.70;99.90;;;;;;5032324;28;20043;-80
2023/03/22 07:19:09;;;;;;;13.85;7.78;;;10.80;99.90;;;;;;5042096;28;20462;-81
2023/03/22 07:21:35;;;;;;;13.25;8.40;;;10.80;99.90;;;;;;5051408;28;20361;-80
2023/03/22 07:24:01;;;;;;;16.52;8.63;;;10.80;99.90;;;;;;5053414;28;20040;-79
2023/03/22 07:26:29;;;;;;;16.25;8.15;;;10.80;99.90;;;;;;5062390;28;20040;-80
2023/03/22 07:28:55;;;;;;;13.32;7.78;;;10.90;99.90;;;;;;5060873;28;20045;-80
2023/03/22 07:31:21;;;;;;;13.85;7.72;;;10.90;99.90;;;;;;5067584;28;20045;-81
2023/03/22 07:33:47;;;;;;;13.57;7.93;;;10.90;99.90;;;;;;5053737;28;20381;-80
2023/03/22 07:36:13;;;;;;;14.40;7.75;;;11.00;99.90;;;;;;5052282;28;20087;-79
2023/03/22 07:38:39;;;;;;;13.73;7.05;;;11.00;99.90;;;;;;5040031;28;20470;-80
2023/03/22 07:41:05;;;;;;;12.40;7.05;;;11.00;99.90;;;;;;5057844;28;20099;-80
2023/03/22 07:43:31;;;;;;;13.70;7.28;;;11.00;99.90;;;;;;5053454;28;20067;-81
2023/03/22 07:45:56;;;;;;;12.70;6.75;;;11.00;99.90;;;;;;5054775;28;20469;-80
2023/03/22 07:48:23;;;;;;;14.60;6.97;;;11.00;99.90;;;;;;5036122;28;20037;-81
2023/03/22 07:50:53;;;;;;;12.13;6.70;;;11.00;99.90;;;;;;5055509;28;20583;-79
2023/03/22 07:53:18;;;;;;;11.98;6.65;;;11.00;99.90;;;;;;5054690;28;20047;-81
2023/03/22 07:55:46;;;;;;;11.63;6.15;;;11.20;99.90;;;;;;5053627;28;20041;-78
2023/03/22 07:58:11;;;;;;;13.13;5.47;;;11.40;99.90;;;;;;5053358;28;20040;-79
2023/03/22 08:00:37;;;;;;;10.43;5.78;;;11.50;99.90;;;;;;5044086;28;20043;-77
2023/03/22 08:03:03;;;;;;;13.55;6.10;;;11.60;99.90;;;;;;5035483;28;20083;-78
2023/03/22 08:05:29;;;;;;;11.00;4.60;;;11.70;99.90;;;;;;5052871;28;20048;-79
2023/03/22 08:07:55;;;;;;;11.32;5.13;;;11.80;99.90;;;;;;5053834;28;20033;-78
2023/03/22 08:10:21;;;;;;;11.50;5.28;;;11.80;99.90;;;;;;5036121;28;20459;-80
2023/03/22 08:12:48;;;;;;;12.63;5.40;;;11.80;99.90;;;;;;5042322;28;20053;-80
2023/03/22 08:15:13;;;;;;;11.32;5.10;;;11.70;99.90;;;;;;5041146;28;20040;-77
2023/03/22 08:17:39;;;;;;;12.00;4.85;;;11.70;99.90;;;;;;5053775;28;20103;-79
2023/03/22 08:20:07;;;;;;;11.77;5.20;;;11.50;99.90;;;;;;5052932;28;20063;-78
2023/03/22 08:22:34;;;;;;;12.02;4.97;;;11.50;99.90;;;;;;5053033;28;20076;-78
2023/03/22 08:25:00;;;;;;;12.77;4.57;;;11.50;99.90;;;;;;5052084;28;20080;-78
2023/03/22 08:27:26;;;;;;;12.95;5.25;;;11.40;99.90;;;;;;5067614;28;20072;-78
2023/03/22 08:29:52;;;;;;;11.68;4.80;;;11.40;99.90;;;;;;5035999;28;20119;-76
2023/03/22 08:32:17;;;;;;;9.70;4.35;;;11.40;99.90;;;;;;5039947;28;20136;-78
2023/03/22 08:34:43;;;;;;;10.75;5.00;;;11.40;99.90;;;;;;5034432;28;20423;-77
2023/03/22 08:37:10;;;;;;;10.30;4.30;;;11.40;99.90;;;;;;5052841;28;20378;-76
2023/03/22 08:39:36;;;;;;;12.65;4.53;;;11.40;99.90;;;;;;5051769;28;20041;-79
2023/03/22 08:42:03;;;;;;;11.27;4.53;;;11.40;99.90;;;;;;5035546;28;20127;-79
2023/03/22 08:44:29;;;;;;;9.68;4.50;;;11.40;99.90;;;;;;5050070;28;20381;-78
2023/03/22 08:46:55;;;;;;;12.95;4.70;;;11.40;99.90;;;;;;5020537;28;20397;-78
2023/03/22 08:49:21;;;;;;;13.00;4.25;;;11.30;99.90;;;;;;5076021;28;20033;-79
2023/03/22 08:51:47;;;;;;;10.23;4.45;;;11.30;99.90;;;;;;5052335;28;20048;-78
2023/03/22 08:54:13;;;;;;;12.63;4.40;;;11.30;99.90;;;;;;5036106;28;20067;-79
2023/03/22 08:56:40;;;;;;;8.35;3.70;;;11.30;99.90;;;;;;5048482;28;20038;-76
2023/03/22 08:59:08;;;;;;;11.35;4.18;;;11.30;99.90;;;;;;5026147;28;20599;-77
2023/03/22 09:01:35;;;;;;;10.55;3.90;;;11.40;99.90;;;;;;5052138;28;20060;-77
2023/03/22 09:04:02;;;;;;;11.65;3.90;;;11.40;99.90;;;;;;5051277;28;20522;-79
2023/03/22 09:06:27;;;;;;;13.52;4.30;;;11.40;99.90;;;;;;5057238;28;20102;-79
2023/03/22 09:08:54;;;;;;;11.75;3.70;;;11.30;99.90;;;;;;5054099;28;20131;-77
2023/03/22 09:11:20;;;;;;;10.70;4.00;;;11.40;99.90;;;;;;5053482;28;20055;-79
2023/03/22 09:13:50;;;;;;;11.10;4.30;;;11.40;99.90;;;;;;5073051;28;20040;-78
2023/03/22 09:16:16;;;;;;;11.40;4.25;;;11.50;99.90;;;;;;5055778;28;20048;-77
2023/03/22 09:18:42;;;;;;;10.35;4.07;;;11.70;99.90;;;;;;5056886;28;20465;-77
2023/03/22 09:21:08;;;;;;;10.35;3.92;;;11.80;99.90;;;;;;5055056;28;20044;-78
2023/03/22 09:23:36;;;;;;;11.02;3.88;;;12.00;99.90;;;;;;5072502;28;20046;-79
2023/03/22 09:26:07;;;;;;;13.55;4.00;;;12.10;99.90;;;;;;5026713;28;20043;-77
2023/03/22 09:28:34;;;;;;;10.15;4.05;;;12.10;99.90;;;;;;5059065;28;20040;-79
2023/03/22 09:31:05;;;;;;;10.73;3.58;;;12.10;99.90;;;;;;5054748;28;20484;-78
2023/03/22 09:33:32;;;;;;;10.32;3.88;;;12.10;99.90;;;;;;5054422;28;20048;-78
2023/03/22 09:35:58;;;;;;;10.75;3.92;;;12.10;99.90;;;;;;5086203;28;20115;-78
2023/03/22 09:38:26;;;;;;;10.60;3.85;;;12.10;99.90;;;;;;5054872;28;20044;-78
2023/03/22 09:41:01;;;;;;;12.48;4.40;;;12.10;99.90;;;;;;5055302;28;20044;-78
2023/03/22 09:43:38;;;;;;;12.77;3.90;;;12.10;99.90;;;;;;5067106;28;20055;-77
2023/03/22 09:46:10;;;;;;;10.75;4.10;;;12.10;99.90;;;;;;5085652;28;20088;-76
2023/03/22 09:48:39;;;;;;;11.80;4.40;;;12.10;99.90;;;;;;5072134;28;20504;-77
2023/03/22 09:51:15;;;;;;;8.05;3.60;;;12.10;99.90;;;;;;5053855;28;20151;-77
2023/03/22 09:53:40;;;;;;;10.30;4.00;;;12.20;99.90;;;;;;5054840;28;20091;-76
2023/03/22 09:56:16;;;;;;;11.07;4.03;;;12.10;99.90;;;;;;5054245;28;20072;-77
2023/03/22 09:59:06;;;;;;;12.65;3.85;;;12.10;99.90;;;;;;5042059;28;20493;-77
2023/03/22 10:01:45;;;;;;;12.05;4.10;;;12.20;99.90;;;;;;5055795;28;20044;-76
2023/03/22 10:04:25;;;;;;;11.45;4.18;;;12.10;99.90;;;;;;5031481;28;20049;-77
2023/03/22 10:07:15;;;;;;;12.07;4.25;;;12.00;99.90;;;;;;5043128;28;20546;-78
2023/03/22 10:10:11;;;;;;;11.45;3.80;;;11.90;99.90;;;;;;5053894;28;20492;-76
2023/03/22 10:13:20;;;;;;;12.90;4.05;;;11.90;99.90;;;;;;5054837;28;20045;-78
2023/03/22 10:15:59;;;;;;;11.25;4.10;;;11.80;99.90;;;;;;5072278;28;20049;-76
2023/03/22 10:18:42;;;;;;;10.55;4.35;;;11.80;99.90;;;;;;5057706;28;20045;-78
2023/03/22 10:21:11;;;;;;;12.70;4.15;;;11.80;99.90;;;;;;5058259;28;20071;-78
2023/03/22 10:23:42;;;;;;;11.85;4.53;;;11.70;99.90;;;;;;5069237;28;20085;-78
2023/03/22 10:26:23;;;;;;;10.35;4.32;;;11.70;99.90;;;;;;5076277;28;20480;-79
2023/03/22 10:28:58;;;;;;;14.13;4.90;;;11.60;99.90;;;;;;5058682;28;20129;-78
2023/03/22 10:31:26;;;;;;;12.95;4.88;;;11.50;99.90;;;;;;5072493;28;20052;-79
2023/03/22 10:33:52;;;;;;;11.27;4.70;;;11.60;99.90;;;;;;5059013;28;20049;-78
2023/03/22 10:36:22;;;;;;;12.30;4.20;;;11.50;99.90;;;;;;5058080;28;20492;-78
2023/03/22 10:38:57;;;;;;;10.63;4.20;;;11.50;99.90;;;;;;5058620;28;20541;-79
2023/03/22 10:41:24;;;;;;;12.55;4.68;;;11.60;99.90;;;;;;5055045;28;20045;-78
2023/03/22 10:43:59;;;;;;;12.88;4.70;;;11.50;99.90;;;;;;5049704;28;20510;-78
2023/03/22 10:46:30;;;;;;;11.55;4.30;;;11.50;99.90;;;;;;5075089;28;20044;-78
2023/03/22 10:48:59;;;;;;;12.50;4.57;;;11.60;99.90;;;;;;5058089;28;20383;-77
2023/03/22 10:51:47;;;;;;;13.23;4.60;;;11.50;99.90;;;;;;5057833;28;20080;-77
2023/03/22 10:54:14;;;;;;;13.02;4.32;;;11.60;99.90;;;;;;5057781;28;20472;-79
2023/03/22 10:56:40;;;;;;;15.35;5.10;;;11.40;99.90;;;;;;5074709;28;20480;-78
2023/03/22 10:59:06;;;;;;;12.82;4.80;;;11.40;99.90;;;;;;5058090;28;20040;-78
2023/03/22 11:01:38;;;;;;;11.77;4.85;;;11.40;99.90;;;;;;5017985;28;20045;-79
2023/03/22 11:04:13;;;;;;;11.10;4.38;;;11.30;99.90;;;;;;5040574;28;20041;-77
2023/03/22 11:06:51;;;;;;;11.48;4.60;;;11.30;99.90;;;;;;5053429;28;20456;-80
2023/03/22 11:09:20;;;;;;;14.35;4.45;;;11.30;99.90;;;;;;5065793;28;20048;-78
2023/03/22 11:11:55;;;;;;;9.70;4.55;;;11.30;99.90;;;;;;5048174;28;20044;-79
2023/03/22 11:14:24;;;;;;;13.25;4.63;;;11.30;99.90;;;;;;5063076;28;20044;-78
2023/03/22 11:17:20;;;;;;;13.40;4.85;;;11.30;99.90;;;;;;5074786;28;20483;-77
2023/03/22 11:19:53;;;;;;;12.77;4.95;;;11.40;99.90;;;;;;5055154;28;20131;-78
2023/03/22 11:22:44;;;;;;;12.65;5.38;;;11.40;99.90;;;;;;5057251;28;20045;-76
2023/03/22 11:25:26;;;;;;;15.32;5.00;;;11.30;99.90;;;;;;5057031;28;20043;-79
2023/03/22 11:28:04;;;;;;;11.40;5.57;;;11.40;99.90;;;;;;5065368;28;20116;-79
2023/03/22 11:30:31;;;;;;;12.48;5.40;;;11.40;99.90;;;;;;5057049;28;20076;-80
2023/03/22 11:33:19;;;;;;;11.15;5.07;;;11.40;99.90;;;;;;5056223;28;20063;-79
2023/03/22 11:35:52;;;;;;;11.85;5.07;;;11.40;99.90;;;;;;5054209;28;20119;-80
2023/03/22 11:38:35;;;;;;;11.70;4.72;;;11.30;99.90;;;;;;5057266;28;20051;-78
2023/03/22 11:41:05;;;;;;;12.25;4.70;;;11.20;99.90;;;;;;5056770;28;20044;-80
2023/03/22 11:43:47;;;;;;;10.68;4.88;;;11.30;99.90;;;;;;5056788;28;20071;-80
2023/03/22 11:46:15;;;;;;;12.17;4.80;;;11.30;99.90;;;;;;5058483;28;20072;-79
2023/03/22 11:48:44;;;;;;;12.20;4.53;;;11.20;99.90;;;;;;5056382;28;20045;-80
2023/03/22 11:51:16;;;;;;;12.82;5.20;;;11.30;99.90;;;;;;5039625;28;20051;-78
2023/03/22 11:53:45;;;;;;;11.65;4.95;;;11.30;99.90;;;;;;5046563;28;20059;-78
2023/03/22 11:56:17;;;;;;;12.05;5.15;;;11.30;99.90;;;;;;5061937;28;20484;-80
2023/03/22 11:59:10;;;;;;;11.13;4.90;;;11.30;99.90;;;;;;5056422;28;20048;-80
2023/03/22 12:01:41;;;;;;;12.75;4.68;;;11.30;99.90;;;;;;5041601;28;20362;-79
2023/03/22 12:04:16;;;;;;;11.70;4.68;;;11.30;99.90;;;;;;5056133;28;20056;-79
2023/03/22 12:06:42;;;;;;;11.38;4.50;;;11.30;99.90;;;;;;5043205;28;20072;-80
2023/03/22 12:09:31;;;;;;;12.85;4.70;;;11.30;99.90;;;;;;5056373;28;20040;-80
2023/03/22 12:11:59;;;;;;;9.57;4.30;;;11.20;99.90;;;;;;5066489;28;20147;-79
2023/03/22 12:14:33;;;;;;;8.95;4.20;;;11.20;99.90;;;;;;5049547;28;20040;-79
2023/03/22 12:17:04;;;;;;;10.73;4.43;;;11.30;99.90;;;;;;5044339;28;20036;-80
2023/03/22 12:19:56;;;;;;;8.90;4.40;;;11.30;99.90;;;;;;5072587;28;20105;-80
2023/03/22 12:22:30;;;;;;;10.13;4.57;;;11.30;99.90;;;;;;5056479;28;20098;-80
2023/03/22 12:24:58;;;;;;;12.75;5.30;;;11.30;99.90;;;;;;5055927;28;20754;-79
2023/03/22 12:27:36;;;;;;;9.63;4.75;;;11.30;99.90;;;;;;5061771;28;20277;-79
2023/03/22 12:30:07;;;;;;;11.68;4.70;;;11.30;99.90;;;;;;5066575;28;20044;-78
2023/03/22 12:32:43;;;;;;;12.45;4.60;;;11.30;99.90;;;;;;5059926;28;20054;-79
2023/03/22 12:35:17;;;;;;;11.88;4.88;;;11.30;99.90;;;;;;5055433;28;20078;-79
2023/03/22 12:37:47;;;;;;;11.60;4.70;;;11.20;99.90;;;;;;5046792;28;20079;-78
2023/03/22 12:40:20;;;;;;;10.13;4.22;;;11.20;99.90;;;;;;5057741;28;20040;-78
2023/03/22 12:43:13;;;;;;;10.98;4.00;;;11.20;99.90;;;;;;5055614;28;20040;-79
2023/03/22 12:45:42;;;;;;;10.10;4.30;;;11.20;99.90;;;;;;5063333;28;20071;-79
2023/03/22 12:48:14;;;;;;;12.20;4.50;;;11.20;99.90;;;;;;5054673;28;20468;-80
2023/03/22 12:50:51;;;;;;;9.57;4.00;;;11.10;99.90;;;;;;5038758;28;20042;-79
2023/03/22 12:53:21;;;;;;;9.07;4.13;;;11.10;99.90;;;;;;5073245;28;20036;-78